Time;durP1;ratioP1;P1;durP2;ratioP2;P2;SDS_P1;SDS_P2;PMS_P1;PMS_P2;Temp;Humidity;BMP_temperature;BMP_pressure;BME280_temperature;BME280_humidity;BME280_pressure;Samples;Min_cycle;Max_cycle;Signal;HPM_P1;HPM_P2
2022/11/15 05:06:17;;;;;;;6.22;4.53;;;;;;;7.32;98.44;101994.84;5055000;28;20399;-80
2022/11/15 05:08:42;;;;;;;8.13;4.25;;;;;;;7.48;97.36;101997.19;5029915;28;20591;-80
2022/11/15 05:11:08;;;;;;;13.07;4.65;;;;;;;7.67;97.94;102000.34;5054653;28;20490;-79
2022/11/15 05:13:33;;;;;;;6.13;4.72;;;;;;;7.85;97.16;101994.03;5066622;28;20029;-79
2022/11/15 05:15:59;;;;;;;9.90;3.55;;;;;;;7.95;95.63;101987.88;5065980;28;20051;-81
2022/11/15 05:18:24;;;;;;;8.43;4.55;;;;;;;8.20;96.39;101985.75;5064326;28;20029;-84
2022/11/15 05:20:50;;;;;;;8.05;3.47;;;;;;;9.20;91.71;101989.84;5067665;28;20021;-83
2022/11/15 05:23:15;;;;;;;7.30;3.47;;;;;;;9.14;86.64;101995.13;5066402;28;20040;-85
2022/11/15 05:25:41;;;;;;;6.93;4.22;;;;;;;9.07;86.29;101996.16;5049710;28;20029;-91
2022/11/15 05:28:06;;;;;;;7.35;3.80;;;;;;;9.05;86.81;101991.03;5049525;28;20064;-83
2022/11/15 05:30:32;;;;;;;7.70;3.85;;;;;;;9.04;86.76;101994.47;5067719;28;20031;-85
2022/11/15 05:32:57;;;;;;;5.53;3.90;;;;;;;8.98;87.23;101994.63;5065999;28;20044;-92
2022/11/15 05:35:34;;;;;;;5.97;3.72;;;;;;;9.06;87.05;101991.88;5024523;28;20487;-86
2022/11/15 05:37:59;;;;;;;9.15;5.57;;;;;;;9.03;86.69;101989.34;5008874;28;20068;-89
2022/11/15 05:40:26;;;;;;;6.38;4.07;;;;;;;9.03;86.68;101986.75;5008858;28;20780;-85
2022/11/15 05:42:51;;;;;;;7.30;3.67;;;;;;;8.99;86.48;101988.56;5009460;28;20033;-82
2022/11/15 05:45:17;;;;;;;4.78;3.20;;;;;;;8.84;86.13;101965.63;5026908;28;20025;-80
2022/11/15 05:47:42;;;;;;;10.48;5.13;;;;;;;9.02;86.89;102003.97;5006801;28;20044;-89
2022/11/15 05:50:08;;;;;;;7.10;4.28;;;;;;;8.80;86.09;101959.72;4990553;28;20062;-81
2022/11/15 05:52:34;;;;;;;16.45;6.13;;;;;;;8.99;86.00;101990.31;5005513;28;20069;-80
2022/11/15 05:55:00;;;;;;;19.60;10.93;;;;;;;9.08;85.65;102000.44;5006372;28;20037;-90
2022/11/15 05:57:25;;;;;;;9.82;5.45;;;;;;;9.00;85.80;101994.59;5005833;28;20130;-87
2022/11/15 05:59:51;;;;;;;6.53;4.40;;;;;;;8.94;85.73;101986.94;4988231;28;20037;-88
2022/11/15 06:02:16;;;;;;;11.25;4.45;;;;;;;8.85;85.88;101969.94;4998987;28;20033;-86
2022/11/15 06:04:42;;;;;;;8.20;4.75;;;;;;;8.95;85.90;101983.47;4989554;28;20103;-88
2022/11/15 06:07:07;;;;;;;9.68;5.20;;;;;;;9.00;86.03;101992.00;5007166;28;20034;-88
2022/11/15 06:09:33;;;;;;;7.78;4.65;;;;;;;9.00;85.62;101997.16;5006651;28;20041;-89
2022/11/15 06:11:58;;;;;;;8.20;4.65;;;;;;;8.90;85.92;101987.03;5004980;28;20049;-88
2022/11/15 06:14:24;;;;;;;10.95;4.57;;;;;;;8.91;85.73;101988.72;5005649;28;20037;-89
2022/11/15 06:16:49;;;;;;;12.95;3.97;;;;;;;8.92;86.15;101984.41;4964164;28;20062;-86
2022/11/15 06:19:15;;;;;;;8.70;3.40;;;;;;;9.04;85.14;101983.28;4975222;28;20062;-89
2022/11/15 06:21:40;;;;;;;11.43;5.13;;;;;;;8.93;85.38;101975.78;4980338;28;20030;-84
2022/11/15 06:24:06;;;;;;;14.20;5.78;;;;;;;9.06;85.21;101999.63;4975458;28;20509;-88
2022/11/15 06:26:31;;;;;;;11.77;5.57;;;;;;;9.13;85.19;101998.59;4963880;28;20032;-93
2022/11/15 06:28:57;;;;;;;13.15;6.15;;;;;;;9.15;84.42;101989.13;4975918;28;20119;-93
2022/11/15 06:31:22;;;;;;;14.13;7.78;;;;;;;9.12;84.51;101996.91;4957280;28;20428;-91
2022/11/15 06:33:49;;;;;;;12.75;7.35;;;;;;;9.15;84.99;101996.84;4991769;28;20408;-86
2022/11/15 06:36:16;;;;;;;12.05;7.22;;;;;;;9.09;84.99;101989.22;4962781;28;20147;-88
2022/11/15 06:38:41;;;;;;;21.77;6.88;;;;;;;9.18;84.05;101995.06;4975324;28;20096;-88
2022/11/15 06:41:08;;;;;;;14.45;7.30;;;;;;;9.03;83.85;101973.84;4976279;28;20484;-81
2022/11/15 06:43:33;;;;;;;10.23;6.43;;;;;;;9.14;83.94;102000.28;4975304;28;20026;-82
2022/11/15 06:46:00;;;;;;;11.23;6.20;;;;;;;9.23;83.49;101992.34;4976433;28;20117;-94
2022/11/15 06:48:26;;;;;;;14.48;6.75;;;;;;;9.25;83.62;101998.34;4975162;28;20084;-85
2022/11/15 06:50:52;;;;;;;15.18;7.70;;;;;;;9.27;84.50;101996.59;4972471;28;20034;-83
2022/11/15 06:53:18;;;;;;;9.40;6.00;;;;;;;9.30;84.89;102001.69;5001786;28;20057;-86
2022/11/15 06:55:43;;;;;;;15.52;7.20;;;;;;;9.34;84.50;102005.91;4975125;28;20468;-93
2022/11/15 06:58:08;;;;;;;10.00;5.75;;;;;;;9.35;84.21;102005.03;4975458;28;20508;-88
2022/11/15 07:00:34;;;;;;;10.65;5.72;;;;;;;9.35;83.38;101992.09;4974322;28;20034;-94
2022/11/15 07:03:00;;;;;;;8.80;5.75;;;;;;;9.34;83.73;102000.75;4990346;28;20514;-88
2022/11/15 07:05:26;;;;;;;15.90;7.35;;;;;;;9.31;84.02;101984.44;4974778;28;20050;-81
2022/11/15 07:07:53;;;;;;;14.23;6.13;;;;;;;9.40;83.63;102002.31;4974521;28;20038;-82
2022/11/15 07:10:21;;;;;;;19.33;10.25;;;;;;;9.31;83.99;101984.44;4974442;28;20033;-93
2022/11/15 07:12:50;;;;;;;11.63;6.80;;;;;;;9.20;83.75;101964.03;4959771;28;20049;-85
2022/11/15 07:15:16;;;;;;;7.93;4.40;;;;;;;9.43;83.13;101992.75;4992685;28;20230;-92
2022/11/15 07:17:42;;;;;;;9.75;4.38;;;;;;;9.29;82.03;101963.81;4976220;28;20045;-93
2022/11/15 07:20:08;;;;;;;12.80;6.32;;;;;;;9.52;82.30;101985.69;4991893;28;20034;-85
2022/11/15 07:22:33;;;;;;;12.48;6.65;;;;;;;9.63;81.53;101991.47;4974760;28;20064;-88
2022/11/15 07:24:59;;;;;;;9.30;5.45;;;;;;;9.69;81.65;101983.56;4975536;28;20057;-93
2022/11/15 07:27:24;;;;;;;18.77;6.45;;;;;;;9.71;81.12;101986.97;4975133;28;20104;-91
2022/11/15 07:29:50;;;;;;;9.02;5.63;;;;;;;9.69;81.15;101973.25;4973675;28;20041;-82
2022/11/15 07:32:15;;;;;;;9.25;6.50;;;;;;;9.80;80.33;101985.91;4973670;28;20022;-86
2022/11/15 07:34:41;;;;;;;13.90;5.80;;;;;;;9.51;80.05;101950.41;4962430;28;20027;-88
2022/11/15 07:37:06;;;;;;;9.55;4.68;;;;;;;9.70;81.19;101967.19;5010910;28;20034;-89
2022/11/15 07:39:32;;;;;;;12.07;5.80;;;;;;;9.72;81.29;101968.00;4968531;28;20029;-90
2022/11/15 07:44:41;;;;;;;14.55;4.90;;;;;;;9.64;79.34;101950.09;5007683;28;20040;-79
2022/11/15 07:47:07;;;;;;;7.55;4.97;;;;;;;9.81;82.30;101975.53;4984858;28;20030;-83
2022/11/15 07:49:32;;;;;;;11.70;4.65;;;;;;;9.92;82.03;101975.25;4982006;28;20088;-87
2022/11/15 07:51:58;;;;;;;11.23;6.40;;;;;;;9.83;81.16;101947.06;4991777;28;20037;-81
2022/11/15 07:54:23;;;;;;;12.45;6.68;;;;;;;9.96;81.63;101967.41;4967318;28;20035;-93
2022/11/15 07:56:49;;;;;;;10.68;5.43;;;;;;;9.93;81.25;101957.16;4977775;28;20038;-94
2022/11/15 07:59:14;;;;;;;30.65;13.52;;;;;;;9.88;80.88;101943.47;4973195;28;20034;-86
2022/11/15 08:01:40;;;;;;;21.70;10.82;;;;;;;9.89;80.09;101952.09;5006655;28;20037;-81
2022/11/15 08:04:05;;;;;;;34.90;17.42;;;;;;;9.99;80.72;101967.31;5009856;28;20034;-93
2022/11/15 08:06:31;;;;;;;13.52;6.80;;;;;;;10.09;82.18;101967.09;4959115;28;20101;-88
2022/11/15 08:08:56;;;;;;;8.55;5.75;;;;;;;9.99;82.68;101938.88;4982323;28;20033;-88
2022/11/15 08:11:22;;;;;;;12.63;7.18;;;;;;;10.22;83.01;101940.03;4997203;28;20500;-80
2022/11/15 08:13:47;;;;;;;12.75;7.60;;;;;;;10.37;81.24;101952.59;5009045;28;20068;-81
2022/11/15 08:16:12;;;;;;;17.90;6.75;;;;;;;10.18;79.82;101935.81;4992719;28;20038;-79
2022/11/15 08:18:38;;;;;;;13.65;6.60;;;;;;;10.35;79.36;101959.53;4969885;28;20030;-83
2022/11/15 08:21:04;;;;;;;10.85;7.10;;;;;;;10.49;83.85;101952.25;4977396;28;20439;-93
2022/11/15 08:23:29;;;;;;;11.75;5.97;;;;;;;10.48;85.31;101929.84;4977601;28;20026;-92
2022/11/15 08:26:02;;;;;;;12.32;6.78;;;;;;;10.60;83.39;101960.56;4991085;28;20113;-81
2022/11/15 08:28:28;;;;;;;12.10;5.93;;;;;;;10.59;80.20;101950.25;5008742;28;20100;-92
2022/11/15 08:30:54;;;;;;;13.98;6.57;;;;;;;10.50;78.80;101938.41;4961531;28;20124;-94
2022/11/15 08:33:19;;;;;;;18.23;7.10;;;;;;;10.46;78.02;101931.63;5002189;28;20436;-92
2022/11/15 08:35:45;;;;;;;14.32;6.88;;;;;;;10.50;80.09;101929.81;4968879;28;20108;-95
2022/11/15 08:38:10;;;;;;;16.65;8.65;;;;;;;10.52;79.83;101936.66;4978819;28;20038;-86
2022/11/15 08:40:36;;;;;;;13.35;7.10;;;;;;;10.52;78.36;101941.84;4975729;28;20483;-91
2022/11/15 08:43:02;;;;;;;16.08;9.50;;;;;;;10.53;78.61;101922.81;5011405;28;20084;-90
2022/11/15 08:45:31;;;;;;;18.20;9.65;;;;;;;10.58;77.69;101938.22;4992583;28;20026;-88
2022/11/15 08:47:57;;;;;;;9.63;5.18;;;;;;;10.82;80.40;101939.25;4987078;28;20030;-93
2022/11/15 08:50:22;;;;;;;11.25;6.10;;;;;;;10.96;76.44;101942.28;4978265;28;20030;-92
2022/11/15 08:52:48;;;;;;;11.00;6.20;;;;;;;10.80;77.20;101935.84;4978740;28;20104;-91
2022/11/15 08:55:14;;;;;;;10.73;5.38;;;;;;;11.10;75.82;101947.03;4961675;28;20551;-92
2022/11/15 08:57:39;;;;;;;8.80;6.15;;;;;;;10.85;74.79;101934.00;4973811;28;20455;-95
2022/11/15 09:00:06;;;;;;;11.38;6.20;;;;;;;10.75;74.85;101935.16;4990608;28;20030;-90
2022/11/15 09:02:31;;;;;;;54.20;23.65;;;;;;;10.64;75.18;101932.88;4977814;28;20113;-87
2022/11/15 09:04:56;;;;;;;56.75;28.35;;;;;;;10.62;76.20;101932.91;4971215;28;20069;-85
2022/11/15 09:07:22;;;;;;;16.60;9.10;;;;;;;10.85;77.89;101928.81;4963502;28;20029;-93
2022/11/15 09:09:48;;;;;;;11.27;6.68;;;;;;;10.81;77.91;101928.03;4974978;28;20038;-93
2022/11/15 09:12:16;;;;;;;14.60;6.13;;;;;;;10.62;76.90;101908.78;4962218;28;20121;-95
2022/11/15 09:14:45;;;;;;;12.25;7.07;;;;;;;10.53;79.77;101909.88;4976689;28;20061;-94
2022/11/15 09:17:10;;;;;;;15.07;6.72;;;;;;;10.47;77.44;101909.19;4957210;28;20026;-89
2022/11/15 09:19:36;;;;;;;17.00;6.03;;;;;;;10.43;77.07;101913.63;4981965;28;20030;-90
2022/11/15 09:22:04;;;;;;;17.05;5.85;;;;;;;10.40;76.82;101915.44;4981135;28;20037;-93
2022/11/15 09:24:30;;;;;;;12.90;6.75;;;;;;;10.25;77.43;101901.19;4973683;28;20030;-91
2022/11/15 09:26:55;;;;;;;9.02;4.65;;;;;;;10.47;80.99;101910.03;4976899;28;20037;-96
2022/11/15 09:29:21;;;;;;;9.32;4.38;;;;;;;10.33;79.13;101888.91;4958493;28;20030;-95
2022/11/15 09:31:46;;;;;;;8.55;4.07;;;;;;;10.35;77.16;101905.22;4997886;28;20527;-80
2022/11/15 09:34:12;;;;;;;11.95;5.03;;;;;;;10.26;77.42;101892.53;5000805;28;20034;-93
2022/11/15 09:36:37;;;;;;;10.00;5.22;;;;;;;10.32;77.06;101897.53;4937680;28;20062;-89
2022/11/15 09:39:03;;;;;;;8.73;4.32;;;;;;;10.32;76.64;101887.19;4957984;28;20027;-89
2022/11/15 09:41:57;;;;;;;13.32;5.03;;;;;;;10.24;76.40;101889.16;4988611;28;20117;-87
2022/11/15 09:44:34;;;;;;;9.77;5.10;;;;;;;10.22;77.29;101885.72;4988839;28;20027;-92
2022/11/15 09:47:07;;;;;;;7.28;4.57;;;;;;;10.25;77.46;101886.53;4991170;28;20030;-95
2022/11/15 09:49:33;;;;;;;11.10;5.35;;;;;;;9.94;76.62;101839.94;5005038;28;20168;-86
2022/11/15 09:51:58;;;;;;;6.97;3.85;;;;;;;9.97;76.57;101865.69;4980334;28;20470;-85
2022/11/15 09:54:35;;;;;;;9.68;4.55;;;;;;;10.13;77.53;101870.44;4975352;28;20023;-85
2022/11/15 09:57:11;;;;;;;7.97;4.97;;;;;;;10.09;77.03;101850.72;4948713;28;20026;-85
2022/11/15 09:59:55;;;;;;;13.93;5.28;;;;;;;10.12;76.87;101868.75;4977362;28;20034;-87
2022/11/15 10:02:26;;;;;;;9.10;4.68;;;;;;;10.05;76.95;101873.25;4993439;28;20057;-85
2022/11/15 10:04:52;;;;;;;8.98;5.18;;;;;;;9.89;77.64;101849.53;4993251;28;20050;-87
2022/11/15 10:07:55;;;;;;;11.52;4.80;;;;;;;9.90;77.89;101853.81;4975684;28;20030;-82
2022/11/15 10:10:30;;;;;;;12.55;5.93;;;;;;;9.81;78.02;101823.03;4989205;28;20026;-79
2022/11/15 10:12:55;;;;;;;11.48;4.45;;;;;;;9.74;78.45;101813.78;4975946;28;20124;-80
2022/11/15 10:15:22;;;;;;;14.60;5.22;;;;;;;9.86;78.00;101816.03;4959607;28;20033;-83
2022/11/15 10:17:53;;;;;;;5.65;3.42;;;;;;;9.83;77.58;101805.75;4976060;28;20073;-81
2022/11/15 10:20:29;;;;;;;10.18;4.63;;;;;;;9.97;77.10;101834.66;4993498;28;20984;-80
2022/11/15 10:23:05;;;;;;;11.18;4.47;;;;;;;9.93;77.27;101833.06;4959844;28;20065;-80
2022/11/15 10:25:32;;;;;;;7.55;4.10;;;;;;;9.87;77.35;101814.28;4977795;28;20036;-94
2022/11/15 10:28:22;;;;;;;11.35;4.70;;;;;;;10.04;76.63;101831.03;4959791;28;20038;-80
2022/11/15 10:30:49;;;;;;;6.90;3.78;;;;;;;10.01;76.51;101815.59;4991920;28;20034;-84
2022/11/15 10:33:24;;;;;;;9.30;3.35;;;;;;;10.13;76.30;101823.88;4990140;28;20049;-93
2022/11/15 10:36:08;;;;;;;8.30;4.13;;;;;;;9.96;76.05;101794.19;4977322;28;20491;-78
2022/11/15 10:38:43;;;;;;;6.40;3.90;;;;;;;9.98;75.97;101789.84;4991303;28;20053;-79
2022/11/15 10:41:11;;;;;;;5.85;3.17;;;;;;;10.04;76.29;101794.84;4975800;28;20034;-79
2022/11/15 10:43:36;;;;;;;8.18;4.55;;;;;;;10.02;75.73;101786.25;4974929;28;20117;-79
2022/11/15 10:46:19;;;;;;;7.18;3.47;;;;;;;10.13;75.48;101787.69;4974432;28;20034;-80
2022/11/15 10:48:45;;;;;;;5.30;2.85;;;;;;;10.25;74.93;101797.75;4975272;28;20030;-82
2022/11/15 10:51:20;;;;;;;5.60;3.78;;;;;;;10.18;75.07;101783.25;4975269;28;20100;-84
2022/11/15 10:53:45;;;;;;;5.70;4.00;;;;;;;10.31;74.24;101788.03;4991863;28;20045;-87
2022/11/15 10:56:12;;;;;;;6.22;2.53;;;;;;;10.14;73.90;101769.56;4989958;28;20636;-85
2022/11/15 10:58:42;;;;;;;8.90;4.53;;;;;;;10.19;74.74;101785.78;4960320;28;20420;-84
2022/11/15 11:01:12;;;;;;;5.00;2.95;;;;;;;10.23;73.51;101774.50;4991523;28;20037;-85
2022/11/15 11:03:38;;;;;;;4.25;2.05;;;;;;;10.21;72.98;101780.56;4975907;28;20040;-82
2022/11/15 11:06:11;;;;;;;6.60;3.70;;;;;;;10.16;73.12;101761.75;4988506;28;20053;-79
2022/11/15 11:08:37;;;;;;;9.57;4.35;;;;;;;10.09;72.85;101763.66;4974692;28;20033;-88
2022/11/15 11:11:03;;;;;;;4.90;2.80;;;;;;;10.22;72.89;101774.53;4958907;28;20039;-88
2022/11/15 11:13:31;;;;;;;5.07;2.85;;;;;;;10.11;72.92;101759.28;4976359;28;20076;-93
2022/11/15 11:16:15;;;;;;;4.93;3.00;;;;;;;10.17;73.07;101773.78;4975098;28;20527;-88
2022/11/15 11:19:10;;;;;;;4.03;2.80;;;;;;;10.11;73.10;101776.53;4990413;28;20053;-81
2022/11/15 11:22:02;;;;;;;3.50;2.40;;;;;;;10.11;73.57;101763.63;5013101;28;20034;-85
2022/11/15 11:24:36;;;;;;;6.57;2.85;;;;;;;10.09;73.54;101773.16;4997964;28;20065;-82
2022/11/15 11:27:43;;;;;;;4.35;3.22;;;;;;;10.09;74.01;101761.09;4975707;28;20033;-79
2022/11/15 11:30:20;;;;;;;5.43;3.67;;;;;;;9.82;73.45;101711.00;4989591;28;20050;-79
2022/11/15 11:33:07;;;;;;;12.90;6.65;;;;;;;10.09;74.53;101755.06;4974240;28;20030;-79
2022/11/15 11:35:36;;;;;;;6.82;4.38;;;;;;;10.12;74.26;101745.47;4988561;28;20030;-84
2022/11/15 11:38:23;;;;;;;10.57;4.82;;;;;;;10.01;74.69;101726.84;4969605;28;20063;-80
2022/11/15 11:41:08;;;;;;;5.00;3.05;;;;;;;10.14;74.56;101735.13;4986166;28;20023;-81
2022/11/15 11:43:37;;;;;;;7.68;4.22;;;;;;;10.16;74.51;101725.56;4968585;28;20080;-80
2022/11/15 11:46:05;;;;;;;16.70;8.55;;;;;;;10.25;74.59;101733.94;4991209;28;20076;-84
2022/11/15 11:48:43;;;;;;;7.43;5.07;;;;;;;10.30;74.60;101732.03;4990927;28;20034;-84
2022/11/15 11:51:18;;;;;;;13.57;5.47;;;;;;;10.34;73.98;101709.53;4989964;28;20041;-89
2022/11/15 11:54:05;;;;;;;7.70;5.10;;;;;;;10.34;73.08;101699.19;4973639;28;20146;-90
2022/11/15 11:56:34;;;;;;;12.35;4.68;;;;;;;10.29;73.26;101701.88;4971732;28;20126;-87
2022/11/15 11:59:27;;;;;;;5.35;3.22;;;;;;;10.40;71.92;101719.66;4988074;28;20109;-87
2022/11/15 12:01:53;;;;;;;6.65;2.40;;;;;;;10.38;71.92;101703.34;4985036;28;20041;-85
2022/11/15 12:04:20;;;;;;;4.82;2.75;;;;;;;10.44;72.46;101707.50;4971470;28;20031;-88
2022/11/15 12:06:51;;;;;;;7.45;2.83;;;;;;;10.53;71.71;101710.66;4988414;28;20058;-81
2022/11/15 12:09:20;;;;;;;4.40;2.67;;;;;;;10.39;72.26;101715.38;4991573;28;20026;-86
2022/11/15 12:12:00;;;;;;;7.55;3.35;;;;;;;10.34;71.99;101710.38;4991094;28;20416;-83
2022/11/15 12:14:32;;;;;;;6.28;3.03;;;;;;;10.24;72.35;101695.19;4988900;28;20067;-86
2022/11/15 12:16:58;;;;;;;10.73;5.73;;;;;;;10.27;73.12;101700.25;4970549;28;20113;-89
2022/11/15 12:19:24;;;;;;;8.35;3.25;;;;;;;10.29;72.96;101688.13;4973324;28;20034;-82
2022/11/15 12:21:51;;;;;;;2.67;2.10;;;;;;;10.38;73.00;101698.19;4956803;28;20045;-92
2022/11/15 12:24:26;;;;;;;4.07;2.58;;;;;;;10.33;73.08;101687.16;4990039;28;20040;-89
2022/11/15 12:27:18;;;;;;;7.90;4.43;;;;;;;10.31;73.44;101678.56;4987418;28;20038;-86
2022/11/15 12:30:06;;;;;;;13.55;7.68;;;;;;;10.33;73.21;101676.81;4988082;28;20037;-86
2022/11/15 12:32:34;;;;;;;10.38;6.68;;;;;;;10.41;73.14;101674.78;4989496;28;20100;-85
2022/11/15 12:35:01;;;;;;;13.90;6.65;;;;;;;10.30;72.89;101666.53;4973011;28;20026;-83
2022/11/15 12:37:35;;;;;;;9.05;2.97;;;;;;;10.32;72.96;101678.53;4951396;28;20061;-93
2022/11/15 12:40:07;;;;;;;9.07;4.30;;;;;;;10.27;73.20;101656.28;4985190;28;20042;-89
2022/11/15 12:42:39;;;;;;;13.13;6.70;;;;;;;10.31;74.10;101663.88;4988660;28;20026;-80
2022/11/15 12:45:25;;;;;;;11.57;5.57;;;;;;;10.30;73.54;101658.75;4990839;28;20026;-87
2022/11/15 12:47:50;;;;;;;15.88;9.52;;;;;;;10.35;73.53;101664.66;4988016;28;20480;-86
2022/11/15 12:50:16;;;;;;;8.93;5.03;;;;;;;10.32;74.52;101663.03;4972883;28;20030;-85
2022/11/15 12:53:24;;;;;;;16.65;4.85;;;;;;;10.39;74.20;101674.00;4973668;28;20118;-83
2022/11/15 12:56:08;;;;;;;11.68;5.72;;;;;;;10.38;74.72;101666.28;4983807;28;20039;-92
2022/11/15 12:58:56;;;;;;;9.48;4.07;;;;;;;10.46;74.00;101662.56;4986114;28;20479;-81
2022/11/15 13:01:34;;;;;;;13.32;6.55;;;;;;;10.42;73.49;101660.13;4987110;28;20031;-82
2022/11/15 13:04:18;;;;;;;11.70;7.15;;;;;;;10.25;74.18;101652.91;4990183;28;20531;-80
2022/11/15 13:06:55;;;;;;;8.77;5.03;;;;;;;10.32;73.93;101665.59;4987225;28;20393;-83
2022/11/15 13:09:36;;;;;;;7.05;3.70;;;;;;;10.34;73.81;101657.78;4988883;28;20026;-80
2022/11/15 13:12:03;;;;;;;12.43;4.32;;;;;;;10.24;74.30;101643.47;4989225;28;20038;-80
2022/11/15 13:14:51;;;;;;;5.50;3.53;;;;;;;10.29;74.48;101655.34;4989051;28;20492;-79
2022/11/15 13:17:19;;;;;;;9.50;4.70;;;;;;;10.34;74.46;101650.03;4985801;28;20034;-82
2022/11/15 13:19:46;;;;;;;7.88;4.20;;;;;;;10.22;74.24;101632.28;4983975;28;20058;-83
2022/11/15 13:24:55;;;;;;;4.68;3.00;;;;;;;10.30;73.90;101626.00;4975073;28;20045;-84
2022/11/15 13:27:21;;;;;;;4.68;3.55;;;;;;;10.25;74.26;101621.88;4957403;28;20038;-83
2022/11/15 13:29:46;;;;;;;9.10;4.47;;;;;;;10.34;74.03;101637.09;4973460;28;20531;-86
2022/11/15 13:32:13;;;;;;;8.43;5.40;;;;;;;10.31;74.61;101629.41;4972937;28;20038;-82
2022/11/15 13:34:38;;;;;;;6.57;4.47;;;;;;;10.27;74.21;101635.59;4974041;28;20088;-83
2022/11/15 13:37:08;;;;;;;5.65;4.00;;;;;;;10.23;74.76;101631.44;4956255;28;20098;-86
2022/11/15 13:39:37;;;;;;;4.90;2.38;;;;;;;10.32;74.22;101633.69;4973485;28;20062;-83
2022/11/15 13:42:02;;;;;;;5.82;3.58;;;;;;;10.21;74.36;101617.63;4975402;28;20567;-81
2022/11/15 13:44:31;;;;;;;7.53;4.15;;;;;;;10.32;74.43;101623.34;4974080;28;20101;-85
2022/11/15 13:47:20;;;;;;;7.93;4.22;;;;;;;10.22;74.81;101616.78;4976143;28;20037;-90
2022/11/15 13:49:45;;;;;;;10.27;5.07;;;;;;;10.12;74.75;101600.66;4959993;28;20572;-81
2022/11/15 13:52:14;;;;;;;6.28;4.30;;;;;;;10.05;74.58;101579.34;4975789;28;20125;-80
2022/11/15 13:54:40;;;;;;;9.25;5.57;;;;;;;10.18;74.88;101602.22;4990318;28;20077;-81
2022/11/15 13:57:25;;;;;;;12.73;6.38;;;;;;;10.17;74.89;101592.78;4992078;28;20028;-83
2022/11/15 14:00:05;;;;;;;10.93;6.28;;;;;;;10.25;74.99;101607.19;4992053;28;20038;-84
2022/11/15 14:02:32;;;;;;;8.68;4.22;;;;;;;10.18;75.01;101594.47;4991470;28;20508;-79
2022/11/15 14:05:13;;;;;;;10.65;5.75;;;;;;;10.21;75.60;101604.72;4976088;28;20511;-82
2022/11/15 14:07:38;;;;;;;10.48;4.47;;;;;;;10.24;74.86;101583.97;4993706;28;20538;-81
2022/11/15 14:10:24;;;;;;;13.25;5.20;;;;;;;10.26;74.06;101595.13;4991749;28;20034;-86
2022/11/15 14:12:50;;;;;;;8.25;5.03;;;;;;;10.16;74.71;101580.75;4976850;28;20029;-82
2022/11/15 14:15:32;;;;;;;10.98;5.13;;;;;;;10.23;74.98;101588.31;4972875;28;20098;-83
2022/11/15 14:17:57;;;;;;;12.60;4.28;;;;;;;10.24;74.53;101594.31;4991567;28;20072;-78
2022/11/15 14:20:31;;;;;;;8.70;5.05;;;;;;;10.28;74.81;101588.16;4992406;28;20026;-80
2022/11/15 14:23:04;;;;;;;8.75;3.60;;;;;;;10.17;75.00;101578.13;4976604;28;20500;-82
2022/11/15 14:25:34;;;;;;;11.57;4.55;;;;;;;10.27;75.24;101589.03;4976527;28;20499;-82
2022/11/15 14:28:22;;;;;;;8.02;5.07;;;;;;;10.21;75.31;101584.03;4975952;28;20026;-83
2022/11/15 14:30:49;;;;;;;8.07;4.32;;;;;;;10.25;75.48;101577.91;4991767;28;20037;-83
2022/11/15 14:33:22;;;;;;;8.50;4.13;;;;;;;10.33;75.06;101583.69;4976575;28;20047;-81
2022/11/15 14:35:48;;;;;;;9.27;4.32;;;;;;;10.30;74.78;101573.41;4991802;28;20030;-81
2022/11/15 14:38:14;;;;;;;4.85;3.15;;;;;;;10.06;74.57;101533.66;4954763;28;20488;-84
2022/11/15 14:40:39;;;;;;;7.68;4.07;;;;;;;10.25;74.45;101568.41;4990864;28;20032;-84
2022/11/15 14:43:08;;;;;;;5.68;4.43;;;;;;;10.19;74.41;101554.78;4974894;28;20431;-79
2022/11/15 14:45:34;;;;;;;12.63;4.78;;;;;;;10.15;74.72;101559.22;4974496;28;20054;-78
2022/11/15 14:47:59;;;;;;;12.68;3.72;;;;;;;10.16;74.80;101553.16;4990959;28;20029;-79
2022/11/15 14:50:26;;;;;;;11.05;4.22;;;;;;;10.19;74.80;101554.78;4974660;28;20041;-79
2022/11/15 14:52:51;;;;;;;6.40;3.47;;;;;;;10.15;75.06;101548.88;4990086;28;20030;-80
2022/11/15 14:55:20;;;;;;;11.25;3.97;;;;;;;10.17;75.51;101551.41;4990484;28;20516;-79
2022/11/15 14:57:46;;;;;;;5.50;3.40;;;;;;;10.24;75.91;101550.38;4975392;28;20092;-81
2022/11/15 15:00:12;;;;;;;7.47;4.82;;;;;;;10.12;75.55;101527.44;4990811;28;20038;-83
2022/11/15 15:02:38;;;;;;;4.95;3.05;;;;;;;10.24;75.26;101542.59;4989837;28;20121;-80
2022/11/15 15:05:18;;;;;;;5.97;4.18;;;;;;;10.17;75.15;101520.38;4973647;28;20602;-83
2022/11/15 15:07:44;;;;;;;8.00;4.30;;;;;;;10.19;75.31;101534.09;4989195;28;20031;-82
2022/11/15 15:10:09;;;;;;;4.15;3.30;;;;;;;10.09;74.90;101512.03;4991694;28;20125;-84
2022/11/15 15:12:35;;;;;;;9.93;3.85;;;;;;;10.26;74.80;101535.63;4991623;28;20054;-84
